sensor_id;sensor_type;location;lat;lon;timestamp;P1;durP1;ratioP1;P2;durP2;ratioP2
55537;SDS011;41383;51.418;7.286;2022-12-18T00:00:43;10.90;;;3.55;;
55537;SDS011;41383;51.418;7.286;2022-12-18T00:03:09;7.85;;;3.38;;
55537;SDS011;41383;51.418;7.286;2022-12-18T00:05:35;7.55;;;3.33;;
55537;SDS011;41383;51.418;7.286;2022-12-18T00:08:01;9.15;;;3.45;;
55537;SDS011;41383;51.418;7.286;2022-12-18T00:10:27;6.53;;;3.35;;
55537;SDS011;41383;51.418;7.286;2022-12-18T00:12:53;8.25;;;3.67;;
55537;SDS011;41383;51.418;7.286;2022-12-18T00:15:18;7.27;;;3.50;;
55537;SDS011;41383;51.418;7.286;2022-12-18T00:17:44;7.70;;;4.82;;
55537;SDS011;41383;51.418;7.286;2022-12-18T00:20:09;7.55;;;4.43;;
55537;SDS011;41383;51.418;7.286;2022-12-18T00:22:35;10.45;;;4.50;;
55537;SDS011;41383;51.418;7.286;2022-12-18T00:25:00;9.73;;;4.38;;
55537;SDS011;41383;51.418;7.286;2022-12-18T00:27:25;9.73;;;4.78;;
55537;SDS011;41383;51.418;7.286;2022-12-18T00:29:50;10.90;;;5.10;;
55537;SDS011;41383;51.418;7.286;2022-12-18T00:32:16;6.80;;;3.63;;
55537;SDS011;41383;51.418;7.286;2022-12-18T00:34:41;7.00;;;3.50;;
55537;SDS011;41383;51.418;7.286;2022-12-18T00:37:06;9.43;;;3.20;;
55537;SDS011;41383;51.418;7.286;2022-12-18T00:39:31;8.30;;;3.67;;
55537;SDS011;41383;51.418;7.286;2022-12-18T00:41:57;7.72;;;3.63;;
55537;SDS011;41383;51.418;7.286;2022-12-18T00:44:41;8.35;;;3.80;;
55537;SDS011;41383;51.418;7.286;2022-12-18T00:47:06;8.87;;;4.30;;
55537;SDS011;41383;51.418;7.286;2022-12-18T00:49:31;9.20;;;4.00;;
55537;SDS011;41383;51.418;7.286;2022-12-18T00:51:57;5.20;;;2.97;;
55537;SDS011;41383;51.418;7.286;2022-12-18T00:54:22;9.75;;;3.80;;
55537;SDS011;41383;51.418;7.286;2022-12-18T00:56:47;8.32;;;3.22;;
55537;SDS011;41383;51.418;7.286;2022-12-18T00:59:13;7.53;;;3.70;;
55537;SDS011;41383;51.418;7.286;2022-12-18T01:01:38;8.70;;;3.50;;
55537;SDS011;41383;51.418;7.286;2022-12-18T01:04:03;7.82;;;3.30;;
55537;SDS011;41383;51.418;7.286;2022-12-18T01:06:29;12.20;;;4.10;;
55537;SDS011;41383;51.418;7.286;2022-12-18T01:08:54;10.52;;;4.47;;
55537;SDS011;41383;51.418;7.286;2022-12-18T01:11:20;8.73;;;4.13;;
55537;SDS011;41383;51.418;7.286;2022-12-18T01:13:46;8.65;;;3.85;;
55537;SDS011;41383;51.418;7.286;2022-12-18T01:16:12;11.10;;;4.75;;
55537;SDS011;41383;51.418;7.286;2022-12-18T01:18:38;6.30;;;3.20;;
55537;SDS011;41383;51.418;7.286;2022-12-18T01:21:14;7.72;;;3.20;;
55537;SDS011;41383;51.418;7.286;2022-12-18T01:23:43;6.57;;;3.08;;
55537;SDS011;41383;51.418;7.286;2022-12-18T01:26:13;7.53;;;2.83;;
55537;SDS011;41383;51.418;7.286;2022-12-18T01:28:40;6.20;;;3.78;;
55537;SDS011;41383;51.418;7.286;2022-12-18T01:31:25;8.27;;;3.75;;
55537;SDS011;41383;51.418;7.286;2022-12-18T01:33:52;7.40;;;4.13;;
55537;SDS011;41383;51.418;7.286;2022-12-18T01:36:20;8.20;;;3.75;;
55537;SDS011;41383;51.418;7.286;2022-12-18T01:38:54;8.15;;;4.07;;
55537;SDS011;41383;51.418;7.286;2022-12-18T01:41:21;6.15;;;3.40;;
55537;SDS011;41383;51.418;7.286;2022-12-18T01:43:52;6.78;;;3.67;;
55537;SDS011;41383;51.418;7.286;2022-12-18T01:46:19;6.05;;;3.03;;
55537;SDS011;41383;51.418;7.286;2022-12-18T01:48:47;9.90;;;3.97;;
55537;SDS011;41383;51.418;7.286;2022-12-18T01:51:14;5.95;;;3.47;;
55537;SDS011;41383;51.418;7.286;2022-12-18T01:53:40;7.97;;;4.03;;
55537;SDS011;41383;51.418;7.286;2022-12-18T01:56:07;7.07;;;3.78;;
55537;SDS011;41383;51.418;7.286;2022-12-18T02:01:13;5.82;;;3.38;;
55537;SDS011;41383;51.418;7.286;2022-12-18T02:03:40;8.88;;;4.20;;
55537;SDS011;41383;51.418;7.286;2022-12-18T02:06:19;6.70;;;3.97;;
55537;SDS011;41383;51.418;7.286;2022-12-18T02:08:58;6.85;;;2.78;;
55537;SDS011;41383;51.418;7.286;2022-12-18T02:11:37;7.03;;;3.80;;
55537;SDS011;41383;51.418;7.286;2022-12-18T02:14:10;8.55;;;4.07;;
55537;SDS011;41383;51.418;7.286;2022-12-18T02:19:36;9.38;;;5.07;;
55537;SDS011;41383;51.418;7.286;2022-12-18T02:22:19;9.18;;;4.05;;
55537;SDS011;41383;51.418;7.286;2022-12-18T02:27:48;7.53;;;3.63;;
55537;SDS011;41383;51.418;7.286;2022-12-18T02:30:15;5.95;;;3.47;;
55537;SDS011;41383;51.418;7.286;2022-12-18T02:32:43;11.35;;;4.82;;
55537;SDS011;41383;51.418;7.286;2022-12-18T02:35:17;11.55;;;4.85;;
55537;SDS011;41383;51.418;7.286;2022-12-18T02:37:46;12.95;;;4.63;;
55537;SDS011;41383;51.418;7.286;2022-12-18T02:40:12;9.60;;;4.22;;
55537;SDS011;41383;51.418;7.286;2022-12-18T02:42:40;8.63;;;3.67;;
55537;SDS011;41383;51.418;7.286;2022-12-18T02:45:05;11.70;;;4.45;;
55537;SDS011;41383;51.418;7.286;2022-12-18T02:47:32;6.53;;;3.20;;
55537;SDS011;41383;51.418;7.286;2022-12-18T02:55:52;7.72;;;3.63;;
55537;SDS011;41383;51.418;7.286;2022-12-18T02:58:29;5.88;;;3.05;;
55537;SDS011;41383;51.418;7.286;2022-12-18T03:01:24;6.82;;;4.13;;
55537;SDS011;41383;51.418;7.286;2022-12-18T03:03:52;9.38;;;3.85;;
55537;SDS011;41383;51.418;7.286;2022-12-18T03:08:51;8.15;;;3.28;;
55537;SDS011;41383;51.418;7.286;2022-12-18T03:11:22;7.10;;;4.22;;
55537;SDS011;41383;51.418;7.286;2022-12-18T03:14:07;7.22;;;3.95;;
55537;SDS011;41383;51.418;7.286;2022-12-18T03:16:36;7.70;;;3.65;;
55537;SDS011;41383;51.418;7.286;2022-12-18T03:19:04;7.25;;;4.13;;
55537;SDS011;41383;51.418;7.286;2022-12-18T03:21:38;7.82;;;3.20;;
55537;SDS011;41383;51.418;7.286;2022-12-18T03:24:07;10.63;;;3.75;;
55537;SDS011;41383;51.418;7.286;2022-12-18T03:26:34;6.28;;;3.25;;
55537;SDS011;41383;51.418;7.286;2022-12-18T03:29:25;7.60;;;3.20;;
55537;SDS011;41383;51.418;7.286;2022-12-18T03:32:09;6.43;;;3.15;;
55537;SDS011;41383;51.418;7.286;2022-12-18T03:34:38;8.20;;;3.65;;
55537;SDS011;41383;51.418;7.286;2022-12-18T03:37:06;11.13;;;4.55;;
55537;SDS011;41383;51.418;7.286;2022-12-18T03:39:32;7.00;;;3.42;;
55537;SDS011;41383;51.418;7.286;2022-12-18T03:42:01;6.28;;;4.15;;
55537;SDS011;41383;51.418;7.286;2022-12-18T03:44:40;10.73;;;4.10;;
55537;SDS011;41383;51.418;7.286;2022-12-18T03:47:28;7.20;;;2.75;;
55537;SDS011;41383;51.418;7.286;2022-12-18T03:50:07;6.47;;;2.72;;
55537;SDS011;41383;51.418;7.286;2022-12-18T03:52:44;7.18;;;3.50;;
55537;SDS011;41383;51.418;7.286;2022-12-18T03:55:17;5.25;;;2.38;;
55537;SDS011;41383;51.418;7.286;2022-12-18T03:57:44;6.60;;;3.28;;
55537;SDS011;41383;51.418;7.286;2022-12-18T04:00:13;8.00;;;3.28;;
55537;SDS011;41383;51.418;7.286;2022-12-18T04:02:51;5.40;;;2.70;;
55537;SDS011;41383;51.418;7.286;2022-12-18T04:05:19;5.88;;;2.75;;
55537;SDS011;41383;51.418;7.286;2022-12-18T04:07:47;9.02;;;3.47;;
55537;SDS011;41383;51.418;7.286;2022-12-18T04:10:14;6.85;;;2.20;;
55537;SDS011;41383;51.418;7.286;2022-12-18T04:12:41;7.40;;;3.53;;
55537;SDS011;41383;51.418;7.286;2022-12-18T04:15:06;6.93;;;2.83;;
55537;SDS011;41383;51.418;7.286;2022-12-18T04:17:33;7.72;;;3.78;;
55537;SDS011;41383;51.418;7.286;2022-12-18T04:19:58;6.32;;;3.25;;
55537;SDS011;41383;51.418;7.286;2022-12-18T04:22:23;7.75;;;3.15;;
55537;SDS011;41383;51.418;7.286;2022-12-18T04:24:48;8.73;;;3.43;;
55537;SDS011;41383;51.418;7.286;2022-12-18T04:27:14;6.10;;;2.72;;
55537;SDS011;41383;51.418;7.286;2022-12-18T04:29:39;5.25;;;2.53;;
55537;SDS011;41383;51.418;7.286;2022-12-18T04:32:04;5.25;;;2.08;;
55537;SDS011;41383;51.418;7.286;2022-12-18T04:34:29;4.28;;;2.58;;
55537;SDS011;41383;51.418;7.286;2022-12-18T04:36:55;5.95;;;1.83;;
55537;SDS011;41383;51.418;7.286;2022-12-18T04:39:20;2.58;;;1.70;;
55537;SDS011;41383;51.418;7.286;2022-12-18T04:41:46;6.82;;;3.35;;
55537;SDS011;41383;51.418;7.286;2022-12-18T04:44:11;6.65;;;2.63;;
55537;SDS011;41383;51.418;7.286;2022-12-18T04:46:36;5.35;;;2.95;;
55537;SDS011;41383;51.418;7.286;2022-12-18T04:49:02;5.00;;;2.03;;
55537;SDS011;41383;51.418;7.286;2022-12-18T04:51:27;7.63;;;2.15;;
55537;SDS011;41383;51.418;7.286;2022-12-18T04:53:52;4.33;;;1.57;;
55537;SDS011;41383;51.418;7.286;2022-12-18T04:56:18;4.13;;;2.45;;
55537;SDS011;41383;51.418;7.286;2022-12-18T04:58:44;5.55;;;2.50;;
55537;SDS011;41383;51.418;7.286;2022-12-18T05:01:10;4.50;;;2.13;;
55537;SDS011;41383;51.418;7.286;2022-12-18T05:03:37;4.93;;;2.03;;
55537;SDS011;41383;51.418;7.286;2022-12-18T05:06:03;7.13;;;3.40;;
55537;SDS011;41383;51.418;7.286;2022-12-18T05:08:29;4.80;;;1.88;;
55537;SDS011;41383;51.418;7.286;2022-12-18T05:11:01;8.05;;;3.03;;
55537;SDS011;41383;51.418;7.286;2022-12-18T05:13:37;6.57;;;3.28;;
55537;SDS011;41383;51.418;7.286;2022-12-18T05:16:03;7.68;;;3.65;;
55537;SDS011;41383;51.418;7.286;2022-12-18T05:18:29;6.05;;;3.05;;
55537;SDS011;41383;51.418;7.286;2022-12-18T05:20:54;6.30;;;2.28;;
55537;SDS011;41383;51.418;7.286;2022-12-18T05:23:20;6.13;;;2.85;;
55537;SDS011;41383;51.418;7.286;2022-12-18T05:25:58;5.15;;;2.47;;
55537;SDS011;41383;51.418;7.286;2022-12-18T05:28:25;5.25;;;2.63;;
55537;SDS011;41383;51.418;7.286;2022-12-18T05:30:52;6.22;;;2.15;;
55537;SDS011;41383;51.418;7.286;2022-12-18T05:33:19;4.20;;;1.83;;
55537;SDS011;41383;51.418;7.286;2022-12-18T05:35:50;7.90;;;3.42;;
55537;SDS011;41383;51.418;7.286;2022-12-18T05:38:16;7.45;;;2.72;;
55537;SDS011;41383;51.418;7.286;2022-12-18T05:40:42;8.48;;;2.72;;
55537;SDS011;41383;51.418;7.286;2022-12-18T05:43:08;2.13;;;1.23;;
55537;SDS011;41383;51.418;7.286;2022-12-18T05:45:36;7.07;;;2.42;;
55537;SDS011;41383;51.418;7.286;2022-12-18T05:48:02;6.22;;;2.40;;
55537;SDS011;41383;51.418;7.286;2022-12-18T05:50:27;5.78;;;2.55;;
55537;SDS011;41383;51.418;7.286;2022-12-18T05:52:52;5.13;;;2.47;;
55537;SDS011;41383;51.418;7.286;2022-12-18T05:55:18;8.15;;;2.92;;
55537;SDS011;41383;51.418;7.286;2022-12-18T05:57:43;4.33;;;2.50;;
55537;SDS011;41383;51.418;7.286;2022-12-18T06:00:08;6.57;;;2.67;;
55537;SDS011;41383;51.418;7.286;2022-12-18T06:02:34;3.72;;;2.00;;
55537;SDS011;41383;51.418;7.286;2022-12-18T06:04:59;6.33;;;2.03;;
55537;SDS011;41383;51.418;7.286;2022-12-18T06:07:25;2.90;;;1.60;;
55537;SDS011;41383;51.418;7.286;2022-12-18T06:09:50;7.13;;;2.80;;
55537;SDS011;41383;51.418;7.286;2022-12-18T06:12:15;4.67;;;2.27;;
55537;SDS011;41383;51.418;7.286;2022-12-18T06:14:40;5.35;;;2.65;;
55537;SDS011;41383;51.418;7.286;2022-12-18T06:17:06;4.18;;;2.08;;
55537;SDS011;41383;51.418;7.286;2022-12-18T06:19:31;4.45;;;1.65;;
55537;SDS011;41383;51.418;7.286;2022-12-18T06:21:56;6.07;;;3.07;;
55537;SDS011;41383;51.418;7.286;2022-12-18T06:24:23;7.35;;;3.15;;
55537;SDS011;41383;51.418;7.286;2022-12-18T06:26:49;6.68;;;3.22;;
55537;SDS011;41383;51.418;7.286;2022-12-18T06:29:14;5.25;;;2.22;;
55537;SDS011;41383;51.418;7.286;2022-12-18T06:31:39;6.10;;;2.80;;
55537;SDS011;41383;51.418;7.286;2022-12-18T06:34:05;6.47;;;3.28;;
55537;SDS011;41383;51.418;7.286;2022-12-18T06:36:30;6.35;;;2.63;;
55537;SDS011;41383;51.418;7.286;2022-12-18T06:38:56;7.35;;;3.17;;
55537;SDS011;41383;51.418;7.286;2022-12-18T06:41:22;5.80;;;3.40;;
55537;SDS011;41383;51.418;7.286;2022-12-18T06:43:47;6.78;;;4.30;;
55537;SDS011;41383;51.418;7.286;2022-12-18T06:46:12;6.90;;;3.05;;
55537;SDS011;41383;51.418;7.286;2022-12-18T06:48:38;7.07;;;2.92;;
55537;SDS011;41383;51.418;7.286;2022-12-18T06:51:03;6.28;;;3.45;;
55537;SDS011;41383;51.418;7.286;2022-12-18T06:53:29;8.65;;;3.45;;
55537;SDS011;41383;51.418;7.286;2022-12-18T06:56:04;4.47;;;2.58;;
55537;SDS011;41383;51.418;7.286;2022-12-18T06:58:31;6.10;;;3.22;;
55537;SDS011;41383;51.418;7.286;2022-12-18T07:01:00;7.00;;;3.13;;
55537;SDS011;41383;51.418;7.286;2022-12-18T07:03:26;9.18;;;3.85;;
55537;SDS011;41383;51.418;7.286;2022-12-18T07:05:51;5.07;;;2.78;;
55537;SDS011;41383;51.418;7.286;2022-12-18T07:08:17;7.30;;;3.42;;
55537;SDS011;41383;51.418;7.286;2022-12-18T07:10:42;6.63;;;3.08;;
55537;SDS011;41383;51.418;7.286;2022-12-18T07:13:08;6.65;;;3.13;;
55537;SDS011;41383;51.418;7.286;2022-12-18T07:15:34;7.00;;;3.17;;
55537;SDS011;41383;51.418;7.286;2022-12-18T07:17:59;4.43;;;2.38;;
55537;SDS011;41383;51.418;7.286;2022-12-18T07:20:24;19.07;;;2.67;;
55537;SDS011;41383;51.418;7.286;2022-12-18T07:22:50;8.53;;;3.73;;
55537;SDS011;41383;51.418;7.286;2022-12-18T07:25:15;7.80;;;3.17;;
55537;SDS011;41383;51.418;7.286;2022-12-18T07:27:40;9.40;;;2.97;;
55537;SDS011;41383;51.418;7.286;2022-12-18T07:30:05;7.20;;;3.50;;
55537;SDS011;41383;51.418;7.286;2022-12-18T07:32:31;4.90;;;2.47;;
55537;SDS011;41383;51.418;7.286;2022-12-18T07:34:56;6.35;;;3.83;;
55537;SDS011;41383;51.418;7.286;2022-12-18T07:37:22;5.68;;;3.17;;
55537;SDS011;41383;51.418;7.286;2022-12-18T07:39:47;7.60;;;2.40;;
55537;SDS011;41383;51.418;7.286;2022-12-18T07:42:12;5.50;;;2.70;;
55537;SDS011;41383;51.418;7.286;2022-12-18T07:44:56;5.53;;;2.65;;
55537;SDS011;41383;51.418;7.286;2022-12-18T07:47:21;6.13;;;2.58;;
55537;SDS011;41383;51.418;7.286;2022-12-18T07:49:48;17.45;;;3.58;;
55537;SDS011;41383;51.418;7.286;2022-12-18T07:52:13;37.72;;;6.50;;
55537;SDS011;41383;51.418;7.286;2022-12-18T07:54:39;4.80;;;1.90;;
55537;SDS011;41383;51.418;7.286;2022-12-18T07:57:05;9.75;;;2.97;;
55537;SDS011;41383;51.418;7.286;2022-12-18T07:59:30;6.88;;;3.35;;
55537;SDS011;41383;51.418;7.286;2022-12-18T08:01:56;5.80;;;2.87;;
55537;SDS011;41383;51.418;7.286;2022-12-18T08:04:21;6.80;;;3.25;;
55537;SDS011;41383;51.418;7.286;2022-12-18T08:06:46;8.48;;;5.03;;
55537;SDS011;41383;51.418;7.286;2022-12-18T08:09:11;8.73;;;4.03;;
55537;SDS011;41383;51.418;7.286;2022-12-18T08:11:37;7.68;;;3.88;;
55537;SDS011;41383;51.418;7.286;2022-12-18T08:14:02;10.43;;;4.30;;
55537;SDS011;41383;51.418;7.286;2022-12-18T08:16:27;5.57;;;3.13;;
55537;SDS011;41383;51.418;7.286;2022-12-18T08:18:53;7.50;;;2.83;;
55537;SDS011;41383;51.418;7.286;2022-12-18T08:21:20;4.50;;;3.17;;
55537;SDS011;41383;51.418;7.286;2022-12-18T08:23:48;6.32;;;2.65;;
55537;SDS011;41383;51.418;7.286;2022-12-18T08:26:14;7.05;;;2.97;;
55537;SDS011;41383;51.418;7.286;2022-12-18T08:28:39;8.18;;;3.25;;
55537;SDS011;41383;51.418;7.286;2022-12-18T08:31:05;6.03;;;3.30;;
55537;SDS011;41383;51.418;7.286;2022-12-18T08:33:31;4.47;;;1.98;;
55537;SDS011;41383;51.418;7.286;2022-12-18T08:36:00;5.57;;;2.35;;
55537;SDS011;41383;51.418;7.286;2022-12-18T08:38:26;6.47;;;2.72;;
55537;SDS011;41383;51.418;7.286;2022-12-18T08:41:02;4.88;;;2.17;;
55537;SDS011;41383;51.418;7.286;2022-12-18T08:43:28;7.05;;;3.08;;
55537;SDS011;41383;51.418;7.286;2022-12-18T08:46:12;5.55;;;2.38;;
55537;SDS011;41383;51.418;7.286;2022-12-18T08:48:37;4.47;;;2.03;;
55537;SDS011;41383;51.418;7.286;2022-12-18T08:51:03;5.93;;;2.53;;
55537;SDS011;41383;51.418;7.286;2022-12-18T08:53:28;6.28;;;2.72;;
55537;SDS011;41383;51.418;7.286;2022-12-18T08:55:55;7.57;;;2.70;;
55537;SDS011;41383;51.418;7.286;2022-12-18T08:58:21;5.70;;;1.92;;
55537;SDS011;41383;51.418;7.286;2022-12-18T09:00:46;6.10;;;3.13;;
55537;SDS011;41383;51.418;7.286;2022-12-18T09:03:12;9.93;;;2.53;;
55537;SDS011;41383;51.418;7.286;2022-12-18T09:05:42;5.95;;;2.90;;
55537;SDS011;41383;51.418;7.286;2022-12-18T09:08:07;4.93;;;2.80;;
55537;SDS011;41383;51.418;7.286;2022-12-18T09:10:32;7.38;;;2.20;;
55537;SDS011;41383;51.418;7.286;2022-12-18T09:12:58;7.10;;;2.28;;
55537;SDS011;41383;51.418;7.286;2022-12-18T09:15:23;6.15;;;2.70;;
55537;SDS011;41383;51.418;7.286;2022-12-18T09:17:48;6.43;;;2.65;;
55537;SDS011;41383;51.418;7.286;2022-12-18T09:20:14;8.38;;;3.70;;
55537;SDS011;41383;51.418;7.286;2022-12-18T09:22:40;6.07;;;2.45;;
55537;SDS011;41383;51.418;7.286;2022-12-18T09:25:05;5.60;;;2.97;;
55537;SDS011;41383;51.418;7.286;2022-12-18T09:27:32;5.55;;;2.30;;
55537;SDS011;41383;51.418;7.286;2022-12-18T09:29:58;7.40;;;3.22;;
55537;SDS011;41383;51.418;7.286;2022-12-18T09:32:23;8.68;;;3.17;;
55537;SDS011;41383;51.418;7.286;2022-12-18T09:34:48;9.17;;;2.90;;
55537;SDS011;41383;51.418;7.286;2022-12-18T09:37:14;6.22;;;3.70;;
55537;SDS011;41383;51.418;7.286;2022-12-18T09:39:39;5.13;;;2.08;;
55537;SDS011;41383;51.418;7.286;2022-12-18T09:42:04;9.07;;;4.03;;
55537;SDS011;41383;51.418;7.286;2022-12-18T09:44:41;4.78;;;1.98;;
55537;SDS011;41383;51.418;7.286;2022-12-18T09:47:13;4.82;;;2.65;;
55537;SDS011;41383;51.418;7.286;2022-12-18T09:49:44;5.00;;;2.60;;
55537;SDS011;41383;51.418;7.286;2022-12-18T09:52:16;4.63;;;1.85;;
55537;SDS011;41383;51.418;7.286;2022-12-18T09:54:48;6.60;;;2.55;;
55537;SDS011;41383;51.418;7.286;2022-12-18T09:57:19;7.10;;;2.83;;
55537;SDS011;41383;51.418;7.286;2022-12-18T09:59:49;4.30;;;2.28;;
55537;SDS011;41383;51.418;7.286;2022-12-18T10:02:20;4.88;;;1.92;;
55537;SDS011;41383;51.418;7.286;2022-12-18T10:05:35;7.05;;;2.70;;
55537;SDS011;41383;51.418;7.286;2022-12-18T10:13:37;4.88;;;1.65;;
55537;SDS011;41383;51.418;7.286;2022-12-18T10:19:01;7.00;;;2.17;;
55537;SDS011;41383;51.418;7.286;2022-12-18T10:21:41;6.15;;;2.78;;
55537;SDS011;41383;51.418;7.286;2022-12-18T10:24:26;5.05;;;2.75;;
55537;SDS011;41383;51.418;7.286;2022-12-18T10:27:17;7.00;;;2.42;;
55537;SDS011;41383;51.418;7.286;2022-12-18T10:29:46;6.72;;;2.58;;
55537;SDS011;41383;51.418;7.286;2022-12-18T10:32:19;8.07;;;2.53;;
55537;SDS011;41383;51.418;7.286;2022-12-18T10:34:51;6.18;;;2.05;;
55537;SDS011;41383;51.418;7.286;2022-12-18T10:37:19;5.47;;;2.20;;
55537;SDS011;41383;51.418;7.286;2022-12-18T10:40:06;7.43;;;2.40;;
55537;SDS011;41383;51.418;7.286;2022-12-18T10:42:40;4.95;;;2.30;;
55537;SDS011;41383;51.418;7.286;2022-12-18T10:45:11;7.00;;;2.30;;
55537;SDS011;41383;51.418;7.286;2022-12-18T10:47:48;6.38;;;2.13;;
55537;SDS011;41383;51.418;7.286;2022-12-18T10:50:18;6.35;;;3.35;;
55537;SDS011;41383;51.418;7.286;2022-12-18T10:52:53;6.47;;;2.97;;
55537;SDS011;41383;51.418;7.286;2022-12-18T10:55:20;6.93;;;3.20;;
55537;SDS011;41383;51.418;7.286;2022-12-18T10:57:46;5.38;;;2.65;;
55537;SDS011;41383;51.418;7.286;2022-12-18T11:02:54;7.60;;;3.42;;
55537;SDS011;41383;51.418;7.286;2022-12-18T11:05:31;9.48;;;3.58;;
55537;SDS011;41383;51.418;7.286;2022-12-18T11:07:59;3.50;;;2.42;;
55537;SDS011;41383;51.418;7.286;2022-12-18T11:10:26;5.97;;;2.45;;
55537;SDS011;41383;51.418;7.286;2022-12-18T11:12:55;8.52;;;2.50;;
55537;SDS011;41383;51.418;7.286;2022-12-18T11:15:26;7.75;;;3.45;;
55537;SDS011;41383;51.418;7.286;2022-12-18T11:17:54;9.45;;;2.80;;
55537;SDS011;41383;51.418;7.286;2022-12-18T11:20:28;7.50;;;2.70;;
55537;SDS011;41383;51.418;7.286;2022-12-18T11:23:00;5.90;;;2.65;;
55537;SDS011;41383;51.418;7.286;2022-12-18T11:25:29;8.30;;;3.08;;
55537;SDS011;41383;51.418;7.286;2022-12-18T11:28:05;5.43;;;2.33;;
55537;SDS011;41383;51.418;7.286;2022-12-18T11:30:50;6.22;;;4.00;;
55537;SDS011;41383;51.418;7.286;2022-12-18T11:33:37;10.25;;;4.40;;
55537;SDS011;41383;51.418;7.286;2022-12-18T11:36:04;4.90;;;2.78;;
55537;SDS011;41383;51.418;7.286;2022-12-18T11:38:35;8.80;;;3.90;;
55537;SDS011;41383;51.418;7.286;2022-12-18T11:44:35;7.73;;;3.73;;
55537;SDS011;41383;51.418;7.286;2022-12-18T11:50:15;12.23;;;4.43;;
55537;SDS011;41383;51.418;7.286;2022-12-18T11:52:43;7.47;;;3.35;;
55537;SDS011;41383;51.418;7.286;2022-12-18T11:55:33;8.52;;;4.20;;
55537;SDS011;41383;51.418;7.286;2022-12-18T11:58:07;8.80;;;3.75;;
55537;SDS011;41383;51.418;7.286;2022-12-18T12:00:46;7.78;;;3.97;;
55537;SDS011;41383;51.418;7.286;2022-12-18T12:03:22;9.65;;;5.43;;
55537;SDS011;41383;51.418;7.286;2022-12-18T12:06:06;8.35;;;4.13;;
55537;SDS011;41383;51.418;7.286;2022-12-18T12:14:16;7.60;;;3.85;;
55537;SDS011;41383;51.418;7.286;2022-12-18T12:16:51;5.63;;;3.20;;
55537;SDS011;41383;51.418;7.286;2022-12-18T12:25:20;9.85;;;3.70;;
55537;SDS011;41383;51.418;7.286;2022-12-18T12:39:22;6.70;;;2.80;;
55537;SDS011;41383;51.418;7.286;2022-12-18T12:41:54;8.48;;;3.95;;
55537;SDS011;41383;51.418;7.286;2022-12-18T12:47:20;8.98;;;3.92;;
55537;SDS011;41383;51.418;7.286;2022-12-18T12:49:50;7.45;;;3.22;;
55537;SDS011;41383;51.418;7.286;2022-12-18T12:52:20;12.18;;;4.10;;
55537;SDS011;41383;51.418;7.286;2022-12-18T12:54:55;8.90;;;3.58;;
55537;SDS011;41383;51.418;7.286;2022-12-18T12:57:33;10.43;;;4.68;;
55537;SDS011;41383;51.418;7.286;2022-12-18T13:00:09;6.82;;;3.80;;
55537;SDS011;41383;51.418;7.286;2022-12-18T13:05:31;8.18;;;4.13;;
55537;SDS011;41383;51.418;7.286;2022-12-18T13:08:04;7.88;;;3.92;;
55537;SDS011;41383;51.418;7.286;2022-12-18T13:10:35;9.70;;;5.50;;
55537;SDS011;41383;51.418;7.286;2022-12-18T13:13:04;8.70;;;5.00;;
55537;SDS011;41383;51.418;7.286;2022-12-18T13:18:14;14.20;;;5.07;;
55537;SDS011;41383;51.418;7.286;2022-12-18T13:20:44;6.90;;;4.80;;
55537;SDS011;41383;51.418;7.286;2022-12-18T13:23:33;9.20;;;5.32;;
55537;SDS011;41383;51.418;7.286;2022-12-18T13:30:57;17.90;;;7.63;;
55537;SDS011;41383;51.418;7.286;2022-12-18T13:33:36;13.38;;;7.80;;
55537;SDS011;41383;51.418;7.286;2022-12-18T13:36:16;13.65;;;7.57;;
55537;SDS011;41383;51.418;7.286;2022-12-18T13:39:11;11.80;;;7.15;;
55537;SDS011;41383;51.418;7.286;2022-12-18T13:41:42;11.38;;;6.47;;
55537;SDS011;41383;51.418;7.286;2022-12-18T13:44:31;13.05;;;6.85;;
55537;SDS011;41383;51.418;7.286;2022-12-18T13:47:02;12.48;;;6.00;;
55537;SDS011;41383;51.418;7.286;2022-12-18T13:49:39;12.48;;;5.95;;
55537;SDS011;41383;51.418;7.286;2022-12-18T13:52:22;98.30;;;14.98;;
55537;SDS011;41383;51.418;7.286;2022-12-18T13:57:50;12.38;;;7.32;;
55537;SDS011;41383;51.418;7.286;2022-12-18T14:02:54;14.43;;;8.68;;
55537;SDS011;41383;51.418;7.286;2022-12-18T14:05:36;13.32;;;7.82;;
55537;SDS011;41383;51.418;7.286;2022-12-18T14:08:05;14.20;;;8.73;;
55537;SDS011;41383;51.418;7.286;2022-12-18T14:10:43;13.88;;;7.80;;
55537;SDS011;41383;51.418;7.286;2022-12-18T14:13:29;17.58;;;7.97;;
55537;SDS011;41383;51.418;7.286;2022-12-18T14:16:00;15.50;;;7.85;;
55537;SDS011;41383;51.418;7.286;2022-12-18T14:18:31;14.40;;;7.32;;
55537;SDS011;41383;51.418;7.286;2022-12-18T14:21:01;13.82;;;7.65;;
55537;SDS011;41383;51.418;7.286;2022-12-18T14:23:32;14.48;;;8.25;;
55537;SDS011;41383;51.418;7.286;2022-12-18T14:28:45;11.65;;;7.55;;
55537;SDS011;41383;51.418;7.286;2022-12-18T14:31:20;15.98;;;7.45;;
55537;SDS011;41383;51.418;7.286;2022-12-18T14:33:50;14.23;;;7.90;;
55537;SDS011;41383;51.418;7.286;2022-12-18T14:36:20;16.13;;;7.93;;
55537;SDS011;41383;51.418;7.286;2022-12-18T14:38:56;15.40;;;8.98;;
55537;SDS011;41383;51.418;7.286;2022-12-18T14:41:23;13.23;;;8.38;;
55537;SDS011;41383;51.418;7.286;2022-12-18T14:43:50;15.00;;;8.55;;
55537;SDS011;41383;51.418;7.286;2022-12-18T14:46:30;11.07;;;7.57;;
55537;SDS011;41383;51.418;7.286;2022-12-18T14:48:57;16.40;;;10.35;;
55537;SDS011;41383;51.418;7.286;2022-12-18T14:51:25;16.48;;;9.07;;
55537;SDS011;41383;51.418;7.286;2022-12-18T14:53:58;13.20;;;6.72;;
55537;SDS011;41383;51.418;7.286;2022-12-18T14:56:27;12.27;;;8.27;;
55537;SDS011;41383;51.418;7.286;2022-12-18T14:58:55;16.23;;;8.30;;
55537;SDS011;41383;51.418;7.286;2022-12-18T15:01:24;16.77;;;8.60;;
55537;SDS011;41383;51.418;7.286;2022-12-18T15:03:53;14.05;;;8.57;;
55537;SDS011;41383;51.418;7.286;2022-12-18T15:06:38;15.18;;;8.93;;
55537;SDS011;41383;51.418;7.286;2022-12-18T15:09:18;15.80;;;8.93;;
55537;SDS011;41383;51.418;7.286;2022-12-18T15:11:47;26.80;;;12.77;;
55537;SDS011;41383;51.418;7.286;2022-12-18T15:17:17;22.48;;;9.20;;
55537;SDS011;41383;51.418;7.286;2022-12-18T15:19:45;17.70;;;9.63;;
55537;SDS011;41383;51.418;7.286;2022-12-18T15:22:21;17.92;;;10.10;;
55537;SDS011;41383;51.418;7.286;2022-12-18T15:24:52;21.40;;;11.57;;
55537;SDS011;41383;51.418;7.286;2022-12-18T15:27:20;20.25;;;10.20;;
55537;SDS011;41383;51.418;7.286;2022-12-18T15:32:27;17.83;;;10.35;;
55537;SDS011;41383;51.418;7.286;2022-12-18T15:35:01;19.70;;;12.25;;
55537;SDS011;41383;51.418;7.286;2022-12-18T15:37:47;24.08;;;12.85;;
55537;SDS011;41383;51.418;7.286;2022-12-18T15:40:14;15.38;;;10.57;;
55537;SDS011;41383;51.418;7.286;2022-12-18T15:42:44;16.10;;;8.75;;
55537;SDS011;41383;51.418;7.286;2022-12-18T15:45:43;22.25;;;11.73;;
55537;SDS011;41383;51.418;7.286;2022-12-18T15:48:17;25.60;;;13.93;;
55537;SDS011;41383;51.418;7.286;2022-12-18T15:50:46;19.98;;;11.18;;
55537;SDS011;41383;51.418;7.286;2022-12-18T15:53:11;19.42;;;12.02;;
55537;SDS011;41383;51.418;7.286;2022-12-18T15:55:36;21.92;;;12.57;;
55537;SDS011;41383;51.418;7.286;2022-12-18T15:58:21;21.88;;;13.07;;
55537;SDS011;41383;51.418;7.286;2022-12-18T16:00:46;24.77;;;10.82;;
55537;SDS011;41383;51.418;7.286;2022-12-18T16:03:12;29.85;;;15.80;;
55537;SDS011;41383;51.418;7.286;2022-12-18T16:05:37;19.60;;;13.45;;
55537;SDS011;41383;51.418;7.286;2022-12-18T16:08:02;27.70;;;13.20;;
55537;SDS011;41383;51.418;7.286;2022-12-18T16:10:28;27.23;;;14.98;;
55537;SDS011;41383;51.418;7.286;2022-12-18T16:12:54;28.50;;;15.00;;
55537;SDS011;41383;51.418;7.286;2022-12-18T16:15:19;24.35;;;16.08;;
55537;SDS011;41383;51.418;7.286;2022-12-18T16:17:45;23.55;;;12.85;;
55537;SDS011;41383;51.418;7.286;2022-12-18T16:20:19;22.85;;;12.38;;
55537;SDS011;41383;51.418;7.286;2022-12-18T16:22:47;21.95;;;12.10;;